sensor_id;sensor_type;location;lat;lon;timestamp;pressure;altitude;pressure_sealevel;temperature;humidity
1480;BME280;732;51.698;4.886;2023-04-04T00:01:12;103145.53;;;-1.79;68.29
1480;BME280;732;51.698;4.886;2023-04-04T00:03:40;103134.44;;;-1.90;68.08
1480;BME280;732;51.698;4.886;2023-04-04T00:06:09;103140.53;;;-1.88;67.44
1480;BME280;732;51.698;4.886;2023-04-04T00:08:38;103154.38;;;-1.81;67.96
1480;BME280;732;51.698;4.886;2023-04-04T00:11:08;103156.09;;;-1.80;67.80
1480;BME280;732;51.698;4.886;2023-04-04T00:13:36;103152.03;;;-1.92;68.45
1480;BME280;732;51.698;4.886;2023-04-04T00:16:06;103153.09;;;-1.98;68.59
1480;BME280;732;51.698;4.886;2023-04-04T00:18:34;103149.72;;;-2.03;68.87
1480;BME280;732;51.698;4.886;2023-04-04T00:21:02;103123.72;;;-2.14;68.80
1480;BME280;732;51.698;4.886;2023-04-04T00:23:31;103142.63;;;-1.99;68.93
1480;BME280;732;51.698;4.886;2023-04-04T00:25:59;103116.91;;;-2.21;68.77
1480;BME280;732;51.698;4.886;2023-04-04T00:28:29;103122.25;;;-2.24;69.13
1480;BME280;732;51.698;4.886;2023-04-04T00:30:57;103151.53;;;-2.05;69.32
1480;BME280;732;51.698;4.886;2023-04-04T00:33:27;103153.59;;;-2.16;69.78
1480;BME280;732;51.698;4.886;2023-04-04T00:35:55;103149.91;;;-2.11;69.34
1480;BME280;732;51.698;4.886;2023-04-04T00:38:24;103154.34;;;-2.11;69.54
1480;BME280;732;51.698;4.886;2023-04-04T00:40:52;103110.56;;;-2.47;69.41
1480;BME280;732;51.698;4.886;2023-04-04T00:43:21;103124.16;;;-2.31;69.54
1480;BME280;732;51.698;4.886;2023-04-04T00:45:52;103144.06;;;-2.20;69.58
1480;BME280;732;51.698;4.886;2023-04-04T00:48:21;103047.41;;;-2.75;69.38
1480;BME280;732;51.698;4.886;2023-04-04T00:50:51;103147.44;;;-2.15;69.13
1480;BME280;732;51.698;4.886;2023-04-04T00:53:19;103131.03;;;-2.25;69.31
1480;BME280;732;51.698;4.886;2023-04-04T00:55:48;103115.56;;;-2.36;69.45
1480;BME280;732;51.698;4.886;2023-04-04T00:58:17;103108.66;;;-2.40;69.13
1480;BME280;732;51.698;4.886;2023-04-04T01:00:46;103062.28;;;-2.74;69.28
1480;BME280;732;51.698;4.886;2023-04-04T01:03:16;103129.66;;;-2.39;69.20
1480;BME280;732;51.698;4.886;2023-04-04T01:05:45;103136.75;;;-2.42;69.32
1480;BME280;732;51.698;4.886;2023-04-04T01:08:17;103136.00;;;-2.47;69.04
1480;BME280;732;51.698;4.886;2023-04-04T01:10:49;103131.81;;;-2.55;69.57
1480;BME280;732;51.698;4.886;2023-04-04T01:13:18;103127.53;;;-2.59;69.40
1480;BME280;732;51.698;4.886;2023-04-04T01:15:49;103092.22;;;-2.81;69.55
1480;BME280;732;51.698;4.886;2023-04-04T01:18:21;103127.69;;;-2.65;70.16
1480;BME280;732;51.698;4.886;2023-04-04T01:20:56;103102.53;;;-2.74;70.00
1480;BME280;732;51.698;4.886;2023-04-04T01:23:41;103074.06;;;-2.91;69.79
1480;BME280;732;51.698;4.886;2023-04-04T01:26:14;103095.06;;;-2.91;70.03
1480;BME280;732;51.698;4.886;2023-04-04T01:28:42;103097.00;;;-2.97;70.76
1480;BME280;732;51.698;4.886;2023-04-04T01:31:13;103104.81;;;-2.96;70.51
1480;BME280;732;51.698;4.886;2023-04-04T01:33:49;103106.38;;;-2.87;70.46
1480;BME280;732;51.698;4.886;2023-04-04T01:36:29;103122.69;;;-2.74;70.43
1480;BME280;732;51.698;4.886;2023-04-04T01:39:04;103107.97;;;-2.81;70.49
1480;BME280;732;51.698;4.886;2023-04-04T01:41:37;103108.63;;;-2.73;69.79
1480;BME280;732;51.698;4.886;2023-04-04T01:44:08;103098.41;;;-2.84;69.96
1480;BME280;732;51.698;4.886;2023-04-04T01:46:37;103119.16;;;-2.73;70.35
1480;BME280;732;51.698;4.886;2023-04-04T01:49:06;103116.34;;;-2.67;70.36
1480;BME280;732;51.698;4.886;2023-04-04T01:51:38;103110.94;;;-2.61;69.95
1480;BME280;732;51.698;4.886;2023-04-04T01:54:07;103104.16;;;-2.68;69.48
1480;BME280;732;51.698;4.886;2023-04-04T01:56:38;103116.34;;;-2.65;69.81
1480;BME280;732;51.698;4.886;2023-04-04T01:59:06;103118.13;;;-2.67;69.94
1480;BME280;732;51.698;4.886;2023-04-04T02:01:35;103116.34;;;-2.65;69.57
1480;BME280;732;51.698;4.886;2023-04-04T02:04:04;103113.09;;;-2.77;69.36
1480;BME280;732;51.698;4.886;2023-04-04T02:06:33;103073.81;;;-3.16;70.07
1480;BME280;732;51.698;4.886;2023-04-04T02:09:03;103050.03;;;-3.46;70.56
1480;BME280;732;51.698;4.886;2023-04-04T02:11:32;103110.47;;;-3.11;71.16
1480;BME280;732;51.698;4.886;2023-04-04T02:14:01;103140.16;;;-3.09;71.97
1480;BME280;732;51.698;4.886;2023-04-04T02:16:30;103135.03;;;-3.14;72.33
1480;BME280;732;51.698;4.886;2023-04-04T02:18:58;103127.16;;;-3.14;72.65
1480;BME280;732;51.698;4.886;2023-04-04T02:21:27;103132.28;;;-3.08;72.46
1480;BME280;732;51.698;4.886;2023-04-04T02:23:55;103075.50;;;-3.51;72.53
1480;BME280;732;51.698;4.886;2023-04-04T02:26:24;103130.72;;;-3.16;72.54
1480;BME280;732;51.698;4.886;2023-04-04T02:28:52;103140.06;;;-3.05;72.59
1480;BME280;732;51.698;4.886;2023-04-04T02:31:23;103141.56;;;-2.94;72.25
1480;BME280;732;51.698;4.886;2023-04-04T02:33:51;103130.16;;;-2.93;72.08
1480;BME280;732;51.698;4.886;2023-04-04T02:36:20;103126.69;;;-2.94;72.16
1480;BME280;732;51.698;4.886;2023-04-04T02:38:51;103133.56;;;-2.90;71.64
1480;BME280;732;51.698;4.886;2023-04-04T02:41:22;103132.72;;;-2.92;71.48
1480;BME280;732;51.698;4.886;2023-04-04T02:43:50;103131.84;;;-2.91;71.31
1480;BME280;732;51.698;4.886;2023-04-04T02:46:19;103127.56;;;-2.95;71.39
1480;BME280;732;51.698;4.886;2023-04-04T02:48:56;103075.78;;;-3.26;70.93
1480;BME280;732;51.698;4.886;2023-04-04T02:51:24;103123.25;;;-2.97;71.14
1480;BME280;732;51.698;4.886;2023-04-04T02:53:54;103135.78;;;-3.09;70.94
1480;BME280;732;51.698;4.886;2023-04-04T02:56:28;103055.00;;;-3.73;72.43
1480;BME280;732;51.698;4.886;2023-04-04T02:58:58;103141.38;;;-3.24;72.49
1480;BME280;732;51.698;4.886;2023-04-04T03:01:26;103067.91;;;-3.63;72.70
1480;BME280;732;51.698;4.886;2023-04-04T03:04:00;103052.94;;;-3.58;71.86
1480;BME280;732;51.698;4.886;2023-04-04T03:06:31;103074.63;;;-3.50;71.65
1480;BME280;732;51.698;4.886;2023-04-04T03:09:00;103131.50;;;-3.13;71.71
1480;BME280;732;51.698;4.886;2023-04-04T03:11:31;103079.81;;;-3.48;72.52
1480;BME280;732;51.698;4.886;2023-04-04T03:13:59;103119.47;;;-3.23;72.37
1480;BME280;732;51.698;4.886;2023-04-04T03:16:33;103079.75;;;-3.45;72.34
1480;BME280;732;51.698;4.886;2023-04-04T03:19:03;103113.44;;;-3.27;72.16
1480;BME280;732;51.698;4.886;2023-04-04T03:21:32;103078.94;;;-3.49;72.50
1480;BME280;732;51.698;4.886;2023-04-04T03:24:00;103073.63;;;-3.46;72.47
1480;BME280;732;51.698;4.886;2023-04-04T03:26:29;103108.03;;;-3.21;72.21
1480;BME280;732;51.698;4.886;2023-04-04T03:28:57;102999.28;;;-3.82;71.67
1480;BME280;732;51.698;4.886;2023-04-04T03:31:27;103068.44;;;-3.47;72.53
1480;BME280;732;51.698;4.886;2023-04-04T03:33:55;103094.28;;;-3.30;72.78
1480;BME280;732;51.698;4.886;2023-04-04T03:36:27;103072.09;;;-3.55;72.45
1480;BME280;732;51.698;4.886;2023-04-04T03:38:55;103103.06;;;-3.33;72.73
1480;BME280;732;51.698;4.886;2023-04-04T03:41:24;103063.19;;;-3.49;72.73
1480;BME280;732;51.698;4.886;2023-04-04T03:43:53;103095.09;;;-3.28;72.73
1480;BME280;732;51.698;4.886;2023-04-04T03:46:23;103046.78;;;-3.57;72.45
1480;BME280;732;51.698;4.886;2023-04-04T03:48:51;103090.94;;;-3.37;72.56
1480;BME280;732;51.698;4.886;2023-04-04T03:51:22;103099.59;;;-3.33;72.40
1480;BME280;732;51.698;4.886;2023-04-04T03:53:53;103069.44;;;-3.53;72.64
1480;BME280;732;51.698;4.886;2023-04-04T03:56:22;103099.47;;;-3.27;72.08
1480;BME280;732;51.698;4.886;2023-04-04T03:58:50;103090.72;;;-3.28;72.26
1480;BME280;732;51.698;4.886;2023-04-04T04:01:22;103099.78;;;-3.41;73.14
1480;BME280;732;51.698;4.886;2023-04-04T04:08:35;103099.75;;;-3.40;73.22
1480;BME280;732;51.698;4.886;2023-04-04T04:11:05;103055.03;;;-3.74;72.95
1480;BME280;732;51.698;4.886;2023-04-04T04:13:34;103064.78;;;-3.79;73.54
1480;BME280;732;51.698;4.886;2023-04-04T04:16:05;103102.66;;;-3.52;73.60
1480;BME280;732;51.698;4.886;2023-04-04T04:18:35;102981.84;;;-4.24;73.20
1480;BME280;732;51.698;4.886;2023-04-04T04:21:09;103105.03;;;-3.41;72.94
1480;BME280;732;51.698;4.886;2023-04-04T04:23:40;103104.94;;;-3.38;73.09
1480;BME280;732;51.698;4.886;2023-04-04T04:26:10;103038.53;;;-3.79;72.10
1480;BME280;732;51.698;4.886;2023-04-04T04:28:39;103108.47;;;-3.39;72.58
1480;BME280;732;51.698;4.886;2023-04-04T04:31:13;103071.53;;;-3.67;72.47
1480;BME280;732;51.698;4.886;2023-04-04T04:33:46;102961.06;;;-4.34;72.33
1480;BME280;732;51.698;4.886;2023-04-04T04:36:18;103116.44;;;-3.42;72.39
1480;BME280;732;51.698;4.886;2023-04-04T04:39:00;103103.63;;;-3.58;72.36
1480;BME280;732;51.698;4.886;2023-04-04T04:41:35;103053.06;;;-4.05;73.01
1480;BME280;732;51.698;4.886;2023-04-04T04:44:05;102977.88;;;-4.44;73.66
1480;BME280;732;51.698;4.886;2023-04-04T04:46:34;103108.97;;;-3.61;72.91
1480;BME280;732;51.698;4.886;2023-04-04T04:49:09;103117.72;;;-3.62;73.65
1480;BME280;732;51.698;4.886;2023-04-04T04:51:38;103067.78;;;-3.98;73.51
1480;BME280;732;51.698;4.886;2023-04-04T04:54:10;103121.19;;;-3.60;73.19
1480;BME280;732;51.698;4.886;2023-04-04T04:56:41;103089.44;;;-3.88;73.31
1480;BME280;732;51.698;4.886;2023-04-04T04:59:11;103125.69;;;-3.65;73.08
1480;BME280;732;51.698;4.886;2023-04-04T05:01:43;103131.72;;;-3.61;72.97
1480;BME280;732;51.698;4.886;2023-04-04T05:04:13;103125.78;;;-3.70;73.85
1480;BME280;732;51.698;4.886;2023-04-04T05:06:56;103129.28;;;-3.71;74.07
1480;BME280;732;51.698;4.886;2023-04-04T05:09:26;103130.25;;;-3.75;74.59
1480;BME280;732;51.698;4.886;2023-04-04T05:11:56;103093.84;;;-3.89;73.54
1480;BME280;732;51.698;4.886;2023-04-04T05:14:35;103129.06;;;-3.60;73.79
1480;BME280;732;51.698;4.886;2023-04-04T05:17:04;103129.28;;;-3.71;74.38
1480;BME280;732;51.698;4.886;2023-04-04T05:19:34;103135.13;;;-3.58;74.13
1480;BME280;732;51.698;4.886;2023-04-04T05:22:05;103104.97;;;-3.79;73.71
1480;BME280;732;51.698;4.886;2023-04-04T05:24:41;103104.69;;;-3.66;73.86
1480;BME280;732;51.698;4.886;2023-04-04T05:27:15;103077.16;;;-3.86;73.80
1480;BME280;732;51.698;4.886;2023-04-04T05:29:47;103141.78;;;-3.41;73.17
1480;BME280;732;51.698;4.886;2023-04-04T05:32:16;103124.34;;;-3.45;73.50
1480;BME280;732;51.698;4.886;2023-04-04T05:34:52;103132.13;;;-3.41;73.64
1480;BME280;732;51.698;4.886;2023-04-04T05:37:21;103132.09;;;-3.39;73.73
1480;BME280;732;51.698;4.886;2023-04-04T05:39:50;103133.56;;;-3.26;74.04
1480;BME280;732;51.698;4.886;2023-04-04T05:42:20;103066.00;;;-3.55;73.52
1480;BME280;732;51.698;4.886;2023-04-04T05:44:52;103118.34;;;-3.11;74.35
1480;BME280;732;51.698;4.886;2023-04-04T05:47:21;103128.91;;;-2.78;75.15
1480;BME280;732;51.698;4.886;2023-04-04T05:49:49;103119.56;;;-2.56;74.12
1480;BME280;732;51.698;4.886;2023-04-04T05:52:19;103130.69;;;-2.44;73.00
1480;BME280;732;51.698;4.886;2023-04-04T05:54:49;103102.16;;;-2.60;72.41
1480;BME280;732;51.698;4.886;2023-04-04T05:57:27;103132.22;;;-2.37;71.75
1480;BME280;732;51.698;4.886;2023-04-04T05:59:57;103140.13;;;-2.37;71.57
1480;BME280;732;51.698;4.886;2023-04-04T06:02:25;103133.22;;;-2.41;71.71
1480;BME280;732;51.698;4.886;2023-04-04T06:05:00;103135.00;;;-2.43;72.27
1480;BME280;732;51.698;4.886;2023-04-04T06:07:34;103058.34;;;-2.92;73.18
1480;BME280;732;51.698;4.886;2023-04-04T06:10:05;103149.69;;;-2.34;73.07
1480;BME280;732;51.698;4.886;2023-04-04T06:12:36;103094.13;;;-2.53;73.82
1480;BME280;732;51.698;4.886;2023-04-04T06:15:09;103152.53;;;-1.78;73.90
1480;BME280;732;51.698;4.886;2023-04-04T06:17:40;103097.78;;;-1.66;72.69
1480;BME280;732;51.698;4.886;2023-04-04T06:20:10;103143.88;;;-0.96;70.84
1480;BME280;732;51.698;4.886;2023-04-04T06:22:41;103106.44;;;-0.79;70.43
1480;BME280;732;51.698;4.886;2023-04-04T06:25:11;103085.25;;;-0.51;68.64
1480;BME280;732;51.698;4.886;2023-04-04T06:27:46;103091.31;;;-0.23;67.17
1480;BME280;732;51.698;4.886;2023-04-04T06:30:16;103120.41;;;-0.01;66.33
1480;BME280;732;51.698;4.886;2023-04-04T06:32:48;103149.53;;;-0.04;65.85
1480;BME280;732;51.698;4.886;2023-04-04T06:35:20;103109.31;;;-0.35;65.80
1480;BME280;732;51.698;4.886;2023-04-04T06:37:56;103099.19;;;-0.47;66.16
1480;BME280;732;51.698;4.886;2023-04-04T06:40:26;103143.78;;;-0.16;66.68
1480;BME280;732;51.698;4.886;2023-04-04T06:42:57;103147.66;;;-0.01;66.40
1480;BME280;732;51.698;4.886;2023-04-04T06:45:32;103149.56;;;0.19;66.31
1480;BME280;732;51.698;4.886;2023-04-04T06:48:01;103148.88;;;0.38;65.67
1480;BME280;732;51.698;4.886;2023-04-04T06:50:32;103131.47;;;0.32;64.70
1480;BME280;732;51.698;4.886;2023-04-04T06:53:03;103156.66;;;0.65;64.57
1480;BME280;732;51.698;4.886;2023-04-04T06:55:32;103141.03;;;0.59;64.12
1480;BME280;732;51.698;4.886;2023-04-04T06:58:03;103116.56;;;0.53;63.70
1480;BME280;732;51.698;4.886;2023-04-04T07:00:33;103157.13;;;0.75;64.19
1480;BME280;732;51.698;4.886;2023-04-04T07:03:01;103164.38;;;0.69;63.38
1480;BME280;732;51.698;4.886;2023-04-04T07:05:30;103168.00;;;0.67;63.87
1480;BME280;732;51.698;4.886;2023-04-04T07:07:59;103164.38;;;0.69;63.91
1480;BME280;732;51.698;4.886;2023-04-04T07:10:27;103160.09;;;0.67;64.05
1480;BME280;732;51.698;4.886;2023-04-04T07:12:56;103141.78;;;0.62;64.17
1480;BME280;732;51.698;4.886;2023-04-04T07:15:26;103129.50;;;0.61;63.98
1480;BME280;732;51.698;4.886;2023-04-04T07:17:55;103169.00;;;0.86;63.94
1480;BME280;732;51.698;4.886;2023-04-04T07:20:23;103143.50;;;0.85;64.01
1480;BME280;732;51.698;4.886;2023-04-04T07:22:53;103139.44;;;0.99;64.06
1480;BME280;732;51.698;4.886;2023-04-04T07:25:22;103140.84;;;1.08;63.46
1480;BME280;732;51.698;4.886;2023-04-04T07:27:51;103159.66;;;1.22;63.42
1480;BME280;732;51.698;4.886;2023-04-04T07:30:37;103134.00;;;1.24;62.92
1480;BME280;732;51.698;4.886;2023-04-04T07:33:06;103165.75;;;1.45;62.64
1480;BME280;732;51.698;4.886;2023-04-04T07:35:35;103132.47;;;1.39;62.63
1480;BME280;732;51.698;4.886;2023-04-04T07:38:04;103115.63;;;1.42;62.76
1480;BME280;732;51.698;4.886;2023-04-04T07:40:32;103109.28;;;1.25;61.90
1480;BME280;732;51.698;4.886;2023-04-04T07:43:01;103170.84;;;1.70;62.02
1480;BME280;732;51.698;4.886;2023-04-04T07:45:29;103157.88;;;1.64;61.90
1480;BME280;732;51.698;4.886;2023-04-04T07:47:59;103157.53;;;1.72;61.63
1480;BME280;732;51.698;4.886;2023-04-04T07:50:28;103155.03;;;1.69;61.56
1480;BME280;732;51.698;4.886;2023-04-04T07:52:57;103134.25;;;1.59;61.81
1480;BME280;732;51.698;4.886;2023-04-04T07:55:25;103150.13;;;1.80;61.21
1480;BME280;732;51.698;4.886;2023-04-04T07:57:55;103133.25;;;1.62;61.81
1480;BME280;732;51.698;4.886;2023-04-04T08:00:25;103145.75;;;1.79;61.07
1480;BME280;732;51.698;4.886;2023-04-04T08:02:55;103131.41;;;1.85;60.96
1480;BME280;732;51.698;4.886;2023-04-04T08:05:27;103142.72;;;2.09;60.06
1480;BME280;732;51.698;4.886;2023-04-04T08:07:56;103125.69;;;2.14;60.46
1480;BME280;732;51.698;4.886;2023-04-04T08:10:24;103151.81;;;2.60;59.62
1480;BME280;732;51.698;4.886;2023-04-04T08:12:53;103117.03;;;2.86;58.48
1480;BME280;732;51.698;4.886;2023-04-04T08:15:21;103138.47;;;3.69;56.49
1480;BME280;732;51.698;4.886;2023-04-04T08:17:50;103093.06;;;3.91;55.70
1480;BME280;732;51.698;4.886;2023-04-04T08:20:19;103144.63;;;4.84;53.33
1480;BME280;732;51.698;4.886;2023-04-04T08:22:50;103146.66;;;5.42;51.66
1480;BME280;732;51.698;4.886;2023-04-04T08:25:18;103145.75;;;5.71;49.91
1480;BME280;732;51.698;4.886;2023-04-04T08:27:47;103094.75;;;5.78;49.99
1480;BME280;732;51.698;4.886;2023-04-04T08:30:15;103150.31;;;6.27;48.12
1480;BME280;732;51.698;4.886;2023-04-04T08:32:44;103141.88;;;6.62;48.38
1480;BME280;732;51.698;4.886;2023-04-04T08:35:13;103145.88;;;6.70;48.00
1480;BME280;732;51.698;4.886;2023-04-04T08:37:43;103134.50;;;6.80;46.97
1480;BME280;732;51.698;4.886;2023-04-04T08:40:15;103126.94;;;6.60;45.21
1480;BME280;732;51.698;4.886;2023-04-04T08:42:44;103124.41;;;6.71;46.41
1480;BME280;732;51.698;4.886;2023-04-04T08:45:17;103134.44;;;6.95;46.80
1480;BME280;732;51.698;4.886;2023-04-04T08:47:48;103124.81;;;6.92;44.75
1480;BME280;732;51.698;4.886;2023-04-04T08:50:19;103147.97;;;7.19;43.94
1480;BME280;732;51.698;4.886;2023-04-04T08:52:47;103121.84;;;6.97;43.66
1480;BME280;732;51.698;4.886;2023-04-04T08:55:18;103136.16;;;6.96;43.55
1480;BME280;732;51.698;4.886;2023-04-04T08:57:47;103125.38;;;6.97;44.81
1480;BME280;732;51.698;4.886;2023-04-04T09:00:16;103147.63;;;7.24;43.20
1480;BME280;732;51.698;4.886;2023-04-04T09:02:54;103142.00;;;7.28;42.61
1480;BME280;732;51.698;4.886;2023-04-04T09:05:25;103104.94;;;7.37;42.77
1480;BME280;732;51.698;4.886;2023-04-04T09:07:55;103138.81;;;7.62;41.85
1480;BME280;732;51.698;4.886;2023-04-04T09:10:26;103137.75;;;7.77;41.69
1480;BME280;732;51.698;4.886;2023-04-04T09:12:55;103130.25;;;7.95;42.54
1480;BME280;732;51.698;4.886;2023-04-04T09:15:47;103131.13;;;8.09;40.53
1480;BME280;732;51.698;4.886;2023-04-04T09:18:17;103107.72;;;8.00;40.49
1480;BME280;732;51.698;4.886;2023-04-04T09:20:47;103134.25;;;8.03;38.83
1480;BME280;732;51.698;4.886;2023-04-04T09:23:17;103103.31;;;7.86;39.61
1480;BME280;732;51.698;4.886;2023-04-04T09:25:50;103106.97;;;7.85;40.72
1480;BME280;732;51.698;4.886;2023-04-04T09:28:23;103128.53;;;8.07;40.41
1480;BME280;732;51.698;4.886;2023-04-04T09:30:52;103135.59;;;8.08;40.62
1480;BME280;732;51.698;4.886;2023-04-04T09:33:22;103122.25;;;8.21;39.74
1480;BME280;732;51.698;4.886;2023-04-04T09:35:54;103085.44;;;8.12;40.87
1480;BME280;732;51.698;4.886;2023-04-04T09:38:26;103128.03;;;8.15;37.34
1480;BME280;732;51.698;4.886;2023-04-04T09:40:57;103107.41;;;8.04;39.86
1480;BME280;732;51.698;4.886;2023-04-04T09:43:29;103135.88;;;8.29;40.46
1480;BME280;732;51.698;4.886;2023-04-04T09:46:02;103109.91;;;8.32;40.04
1480;BME280;732;51.698;4.886;2023-04-04T09:48:34;103124.81;;;8.47;39.57
1480;BME280;732;51.698;4.886;2023-04-04T09:51:05;103118.22;;;8.64;38.97
1480;BME280;732;51.698;4.886;2023-04-04T09:53:34;103101.19;;;8.41;38.97
1480;BME280;732;51.698;4.886;2023-04-04T09:56:07;103112.41;;;8.70;39.34
1480;BME280;732;51.698;4.886;2023-04-04T09:58:37;103086.25;;;8.62;37.73
1480;BME280;732;51.698;4.886;2023-04-04T10:01:12;103107.41;;;8.90;39.82
1480;BME280;732;51.698;4.886;2023-04-04T10:03:41;103110.75;;;8.81;39.18
1480;BME280;732;51.698;4.886;2023-04-04T10:06:10;103113.06;;;8.74;40.37
1480;BME280;732;51.698;4.886;2023-04-04T10:08:39;103102.00;;;8.54;37.94
1480;BME280;732;51.698;4.886;2023-04-04T10:11:11;103115.72;;;8.74;39.64
1480;BME280;732;51.698;4.886;2023-04-04T10:13:40;103096.47;;;8.69;38.20
1480;BME280;732;51.698;4.886;2023-04-04T10:16:11;103083.91;;;8.58;38.20
1480;BME280;732;51.698;4.886;2023-04-04T10:18:40;103102.84;;;8.79;38.40
1480;BME280;732;51.698;4.886;2023-04-04T10:21:09;103104.91;;;8.75;38.67
1480;BME280;732;51.698;4.886;2023-04-04T10:23:45;103079.72;;;8.78;40.33
1480;BME280;732;51.698;4.886;2023-04-04T10:26:15;103093.31;;;8.99;38.81
1480;BME280;732;51.698;4.886;2023-04-04T10:28:44;103087.38;;;9.18;38.57
1480;BME280;732;51.698;4.886;2023-04-04T10:31:21;103083.03;;;9.17;38.30
1480;BME280;732;51.698;4.886;2023-04-04T10:34:04;103103.03;;;9.36;37.75
1480;BME280;732;51.698;4.886;2023-04-04T10:36:42;103088.94;;;9.45;36.82
1480;BME280;732;51.698;4.886;2023-04-04T10:39:14;103097.72;;;9.47;37.57
1480;BME280;732;51.698;4.886;2023-04-04T10:41:50;103085.97;;;9.37;37.03
1480;BME280;732;51.698;4.886;2023-04-04T10:44:28;103092.97;;;9.51;38.46
1480;BME280;732;51.698;4.886;2023-04-04T10:47:08;103081.31;;;9.74;38.92
1480;BME280;732;51.698;4.886;2023-04-04T10:49:44;103087.63;;;9.85;37.59
1480;BME280;732;51.698;4.886;2023-04-04T10:52:14;103076.63;;;9.88;37.29
1480;BME280;732;51.698;4.886;2023-04-04T10:54:44;103062.03;;;9.69;37.43
1480;BME280;732;51.698;4.886;2023-04-04T10:57:15;103077.38;;;9.79;37.38
1480;BME280;732;51.698;4.886;2023-04-04T10:59:55;102985.25;;;9.34;36.17
1480;BME280;732;51.698;4.886;2023-04-04T11:02:44;103060.19;;;9.93;34.59
1480;BME280;732;51.698;4.886;2023-04-04T11:05:22;103068.94;;;10.17;36.33
1480;BME280;732;51.698;4.886;2023-04-04T11:07:56;103025.22;;;9.83;36.80
1480;BME280;732;51.698;4.886;2023-04-04T11:10:35;103030.34;;;9.86;36.26
1480;BME280;732;51.698;4.886;2023-04-04T11:13:12;103069.41;;;10.22;35.08
1480;BME280;732;51.698;4.886;2023-04-04T11:15:52;103053.84;;;9.94;35.97
1480;BME280;732;51.698;4.886;2023-04-04T11:18:22;103038.50;;;9.84;36.17
1480;BME280;732;51.698;4.886;2023-04-04T11:21:15;103050.19;;;10.06;35.99
1480;BME280;732;51.698;4.886;2023-04-04T11:24:13;103057.59;;;10.14;35.31
1480;BME280;732;51.698;4.886;2023-04-04T11:26:43;103035.81;;;10.07;35.50
1480;BME280;732;51.698;4.886;2023-04-04T11:29:22;103022.09;;;10.21;36.12
1480;BME280;732;51.698;4.886;2023-04-04T11:32:32;103043.66;;;10.64;34.07
1480;BME280;732;51.698;4.886;2023-04-04T11:35:06;103041.84;;;10.64;36.25
1480;BME280;732;51.698;4.886;2023-04-04T11:37:42;103038.94;;;10.56;35.19
1480;BME280;732;51.698;4.886;2023-04-04T11:40:12;103028.78;;;10.60;36.15
1480;BME280;732;51.698;4.886;2023-04-04T11:42:41;103040.56;;;10.80;33.93
1480;BME280;732;51.698;4.886;2023-04-04T11:45:18;103036.44;;;10.76;33.92
1480;BME280;732;51.698;4.886;2023-04-04T11:47:48;103032.19;;;10.73;34.36
1480;BME280;732;51.698;4.886;2023-04-04T11:50:18;103017.03;;;10.72;36.07
1480;BME280;732;51.698;4.886;2023-04-04T11:52:49;103035.41;;;10.88;34.19
1480;BME280;732;51.698;4.886;2023-04-04T11:55:20;103021.53;;;10.71;32.39
1480;BME280;732;51.698;4.886;2023-04-04T11:57:49;103027.09;;;10.26;33.04
1480;BME280;732;51.698;4.886;2023-04-04T12:00:33;103019.88;;;10.27;33.53
1480;BME280;732;51.698;4.886;2023-04-04T12:03:04;103019.53;;;10.52;35.15
1480;BME280;732;51.698;4.886;2023-04-04T12:05:35;103010.13;;;10.58;35.64
1480;BME280;732;51.698;4.886;2023-04-04T12:08:07;102989.56;;;10.47;34.19
1480;BME280;732;51.698;4.886;2023-04-04T12:10:38;102995.94;;;10.67;34.90
1480;BME280;732;51.698;4.886;2023-04-04T12:13:08;102991.44;;;10.68;34.31
1480;BME280;732;51.698;4.886;2023-04-04T12:15:41;103011.00;;;11.01;34.70
1480;BME280;732;51.698;4.886;2023-04-04T12:18:20;102999.78;;;11.17;36.41
1480;BME280;732;51.698;4.886;2023-04-04T12:20:50;102972.06;;;11.16;33.35
1480;BME280;732;51.698;4.886;2023-04-04T12:23:19;102990.53;;;11.31;33.59
1480;BME280;732;51.698;4.886;2023-04-04T12:25:48;102975.56;;;11.07;31.27
1480;BME280;732;51.698;4.886;2023-04-04T12:28:21;102991.78;;;11.27;34.98
1480;BME280;732;51.698;4.886;2023-04-04T12:30:53;102988.19;;;11.16;32.05
1480;BME280;732;51.698;4.886;2023-04-04T12:33:22;102994.94;;;11.11;34.06
1480;BME280;732;51.698;4.886;2023-04-04T12:35:51;102960.72;;;11.03;32.99
1480;BME280;732;51.698;4.886;2023-04-04T12:38:21;102957.72;;;11.06;34.67
1480;BME280;732;51.698;4.886;2023-04-04T12:40:50;102980.69;;;11.20;35.06
1480;BME280;732;51.698;4.886;2023-04-04T12:43:19;102981.72;;;11.29;33.92
1480;BME280;732;51.698;4.886;2023-04-04T12:45:49;102991.69;;;11.38;35.19
1480;BME280;732;51.698;4.886;2023-04-04T12:48:26;102957.72;;;11.37;34.83
1480;BME280;732;51.698;4.886;2023-04-04T12:50:57;102942.50;;;11.57;33.28
1480;BME280;732;51.698;4.886;2023-04-04T12:53:28;102956.84;;;11.77;33.61
1480;BME280;732;51.698;4.886;2023-04-04T12:56:01;102949.97;;;11.44;32.12
1480;BME280;732;51.698;4.886;2023-04-04T12:58:31;102940.47;;;11.40;32.96
1480;BME280;732;51.698;4.886;2023-04-04T13:01:03;102943.09;;;11.61;31.68
1480;BME280;732;51.698;4.886;2023-04-04T13:03:35;102944.94;;;11.70;32.25
1480;BME280;732;51.698;4.886;2023-04-04T13:06:11;102933.88;;;11.53;30.22
1480;BME280;732;51.698;4.886;2023-04-04T13:08:49;102929.09;;;11.67;33.12
1480;BME280;732;51.698;4.886;2023-04-04T13:11:18;102937.91;;;11.89;32.70
1480;BME280;732;51.698;4.886;2023-04-04T13:13:47;102897.28;;;11.31;30.45
1480;BME280;732;51.698;4.886;2023-04-04T13:16:29;102925.19;;;11.40;32.04
1480;BME280;732;51.698;4.886;2023-04-04T13:19:00;102907.84;;;11.54;32.19
1480;BME280;732;51.698;4.886;2023-04-04T13:21:30;102935.91;;;11.81;30.45
1480;BME280;732;51.698;4.886;2023-04-04T13:23:58;102936.25;;;11.88;31.19
1480;BME280;732;51.698;4.886;2023-04-04T13:26:29;102938.34;;;12.04;30.84
1480;BME280;732;51.698;4.886;2023-04-04T13:28:57;102932.00;;;12.14;31.74
1480;BME280;732;51.698;4.886;2023-04-04T13:31:26;102917.97;;;12.30;29.94
1480;BME280;732;51.698;4.886;2023-04-04T13:33:55;102913.88;;;12.26;31.67
1480;BME280;732;51.698;4.886;2023-04-04T13:36:24;102885.69;;;12.21;31.70
1480;BME280;732;51.698;4.886;2023-04-04T13:38:54;102907.78;;;12.24;32.39
1480;BME280;732;51.698;4.886;2023-04-04T13:41:23;102910.03;;;12.39;32.66
1480;BME280;732;51.698;4.886;2023-04-04T13:43:51;102901.34;;;12.55;31.90
1480;BME280;732;51.698;4.886;2023-04-04T13:46:21;102903.31;;;12.62;31.78
1480;BME280;732;51.698;4.886;2023-04-04T13:48:50;102892.19;;;12.38;29.92
1480;BME280;732;51.698;4.886;2023-04-04T13:51:18;102887.06;;;12.44;31.73